Aérodrome :
LOGIN :

S'inscrire | Disclaimer

   EN    FR    IT 

 










Légende :    VFR   VFR Marginal   IFR   IFR Intensif   IFR Très Intensif
Visi : 
Plafond : 
>= 8 km
>= 3000ft
5 à 8 km
1000 à 3000 ft
1500m à 5 km
500 à 1000 ft
800 à 1500m
200 à 500 ft
< 800m
< 200 ft
Symboles :   Orages  Brouillard  Fortes neiges  Fortes précipitations  Vent > 20 kt
SIGMETs :   Divers  Orages  Givrage  Turbulence  Onde Orograph.  Cendres Volcan.






- Altitude de l'aérodrome : 14 ft
- Code IATA : BRE


EDDW - Bremen Neuenland

DERNIER METAR :
  • 301850Z AUTO 07009KT CAVOK 27/16 Q1008 NOSIG

METARs EXPIRÉS :
  • 301820Z AUTO 07010KT CAVOK 28/16 Q1008 NOSIG
  • 301750Z AUTO 06010KT CAVOK 28/15 Q1008 NOSIG
  • 301720Z AUTO 06008KT CAVOK 29/15 Q1008
  • 301650Z AUTO 05009KT CAVOK 29/15 Q1009 NOSIG

TAF TAF EDDW
Valide du 30 à 18h jusqu'au 01 à 18h UTC


301700Z 3018/0118 06008KT CAVOK
BECMG 3018/3020 12004KT
BECMG 3021/3023 26009KT
TEMPO 3021/0105 4000 SHRA BKN008 BKN050CB
PROB30
TEMPO 3021/0103 28015G30KT TSRA
BECMG 3023/0101 BKN012
TEMPO 0105/0110 4500 RA BKN008
BECMG 0109/0111 SCT025



MET'MAP, la Météo Aéronautique d'un coup d'oeil ! - Copyright ORBIFLY Décembre 2007 - Disclaimer

ORBIFLY MET'MAP TEAM :

Programmation & Développement : Alexandra Zaïnal
Sur une idée originale de : Baudouin d'Aumeries
Soutien technique & logistique : Manuel Goepfert
Assistance : Marc-Olivier Méhu




SOURCES & CREDITS :

   NOAA